Time;durP1;ratioP1;P1;durP2;ratioP2;P2;SDS_P1;SDS_P2;PMS_P1;PMS_P2;Temp;Humidity;BMP_temperature;BMP_pressure;BME280_temperature;BME280_humidity;BME280_pressure;Samples;Min_cycle;Max_cycle;Signal;HPM_P1;HPM_P2
2022/05/27 00:02:21;;;;;;;12.90;3.10;;;15.30;92.20;;;;;;5112151;28;20015;-60
2022/05/27 00:04:47;;;;;;;11.43;3.13;;;15.30;92.30;;;;;;5112061;28;20211;-57
2022/05/27 00:07:13;;;;;;;10.50;2.80;;;15.30;91.90;;;;;;5112095;28;20390;-61
2022/05/27 00:09:38;;;;;;;12.48;3.45;;;15.30;92.10;;;;;;5112031;28;20031;-59
2022/05/27 00:12:04;;;;;;;11.52;2.83;;;15.30;92.20;;;;;;5111891;28;20046;-60
2022/05/27 00:14:30;;;;;;;8.88;2.40;;;15.30;92.10;;;;;;5111885;28;20016;-58
2022/05/27 00:16:55;;;;;;;8.82;2.75;;;15.30;92.10;;;;;;5111071;28;20034;-58
2022/05/27 00:19:21;;;;;;;12.18;3.40;;;15.30;92.10;;;;;;5096055;28;20372;-56
2022/05/27 00:21:47;;;;;;;7.30;2.63;;;15.30;92.10;;;;;;5098313;28;20111;-58
2022/05/27 00:24:12;;;;;;;13.77;3.30;;;15.20;92.50;;;;;;5091464;28;20027;-50
2022/05/27 00:26:38;;;;;;;10.40;2.85;;;15.30;91.90;;;;;;5073264;28;20040;-59
2022/05/27 00:29:04;;;;;;;8.05;2.45;;;15.30;92.20;;;;;;5091902;28;20484;-57
2022/05/27 00:31:30;;;;;;;10.70;3.38;;;15.30;92.30;;;;;;5091594;28;20468;-45
2022/05/27 00:33:55;;;;;;;11.45;3.08;;;15.30;92.40;;;;;;5091289;28;20050;-56
2022/05/27 00:36:21;;;;;;;7.82;2.80;;;15.30;92.20;;;;;;5091273;28;20017;-58
2022/05/27 00:38:47;;;;;;;10.68;2.90;;;15.30;92.50;;;;;;5073196;28;20024;-57
2022/05/27 00:41:13;;;;;;;11.63;3.10;;;15.20;92.60;;;;;;5091329;28;20024;-46
2022/05/27 00:43:41;;;;;;;12.70;3.42;;;15.30;92.40;;;;;;5091252;28;20063;-60
2022/05/27 00:46:32;;;;;;;14.38;3.33;;;15.30;92.30;;;;;;5091116;28;20024;-58
2022/05/27 00:49:26;;;;;;;10.30;2.95;;;15.30;92.40;;;;;;5091033;28;20536;-59
2022/05/27 00:52:01;;;;;;;7.13;3.10;;;15.30;92.80;;;;;;5078975;28;20048;-58
2022/05/27 00:54:27;;;;;;;12.73;3.75;;;15.20;92.60;;;;;;5091029;28;20062;-52
2022/05/27 00:57:07;;;;;;;9.73;3.20;;;15.20;92.90;;;;;;5091059;28;20024;-59
2022/05/27 00:59:41;;;;;;;9.50;3.03;;;15.20;92.80;;;;;;5073131;28;20046;-59
2022/05/27 01:02:07;;;;;;;9.13;2.65;;;15.20;92.50;;;;;;5093291;28;20069;-53
2022/05/27 01:04:34;;;;;;;10.85;3.35;;;15.20;93.20;;;;;;5094995;28;20036;-49
2022/05/27 01:06:59;;;;;;;11.68;3.25;;;15.20;92.60;;;;;;5095086;28;20103;-54
2022/05/27 01:09:28;;;;;;;11.13;3.42;;;15.20;92.90;;;;;;5094998;28;20162;-51
2022/05/27 01:12:04;;;;;;;13.32;2.90;;;15.20;92.60;;;;;;5094956;28;20020;-49
2022/05/27 01:14:38;;;;;;;10.50;3.00;;;15.20;92.90;;;;;;5094803;28;20024;-46
2022/05/27 01:17:09;;;;;;;9.05;3.38;;;15.20;93.10;;;;;;5094781;28;20028;-43
2022/05/27 01:22:56;;;;;;;8.83;2.50;;;15.20;92.60;;;;;;5094811;28;20069;-41
2022/05/27 01:25:34;;;;;;;11.43;3.47;;;15.20;92.70;;;;;;5094776;28;20039;-42
2022/05/27 01:28:02;;;;;;;6.70;2.80;;;15.20;92.20;;;;;;5094894;28;20032;-46
2022/05/27 01:30:34;;;;;;;7.13;2.53;;;15.20;92.70;;;;;;5094578;28;20495;-41
2022/05/27 01:33:34;;;;;;;6.57;2.70;;;15.10;92.60;;;;;;5094597;28;20039;-44
2022/05/27 01:36:19;;;;;;;7.18;2.63;;;15.10;92.70;;;;;;5094400;28;20031;-59
2022/05/27 01:38:49;;;;;;;9.95;2.47;;;15.20;92.20;;;;;;5094561;28;20044;-52
2022/05/27 01:41:40;;;;;;;9.73;2.33;;;15.10;92.30;;;;;;5094481;28;20036;-56
2022/05/27 01:44:33;;;;;;;7.65;2.30;;;15.20;92.80;;;;;;5094504;28;20048;-58
2022/05/27 01:47:01;;;;;;;7.90;2.17;;;15.20;92.30;;;;;;5094490;28;20020;-61
2022/05/27 01:49:35;;;;;;;5.93;1.92;;;15.10;92.30;;;;;;5094198;28;20024;-49
2022/05/27 01:52:26;;;;;;;4.18;1.70;;;15.10;93.00;;;;;;5094025;28;20052;-54
2022/05/27 01:55:35;;;;;;;8.13;2.08;;;15.20;92.80;;;;;;5093994;28;20494;-49
2022/05/27 01:58:07;;;;;;;5.55;1.80;;;15.10;92.40;;;;;;5094502;28;20043;-52
2022/05/27 02:00:36;;;;;;;5.60;2.47;;;15.20;92.70;;;;;;5094177;28;20036;-52
2022/05/27 02:03:02;;;;;;;3.83;1.57;;;15.20;93.20;;;;;;5094164;28;20024;-44
2022/05/27 02:05:34;;;;;;;5.95;1.70;;;15.10;92.90;;;;;;5094254;28;20050;-47
2022/05/27 02:08:07;;;;;;;4.68;1.45;;;15.10;92.80;;;;;;5093994;28;20016;-47
2022/05/27 02:10:38;;;;;;;3.22;1.58;;;15.10;92.40;;;;;;5093945;28;20031;-58
2022/05/27 02:13:11;;;;;;;4.50;1.65;;;15.10;92.30;;;;;;5093378;28;20020;-50
2022/05/27 02:15:43;;;;;;;3.88;1.90;;;15.10;92.00;;;;;;5093906;28;20066;-53
2022/05/27 02:18:12;;;;;;;4.72;1.70;;;15.10;92.60;;;;;;5093687;28;20038;-57
2022/05/27 02:20:42;;;;;;;6.07;1.57;;;15.10;92.60;;;;;;5113953;28;20110;-52
2022/05/27 02:23:18;;;;;;;5.10;1.80;;;15.10;92.20;;;;;;5097995;28;20347;-55
2022/05/27 02:25:46;;;;;;;5.55;1.90;;;15.10;92.60;;;;;;5093334;28;20032;-58
2022/05/27 02:28:34;;;;;;;5.63;1.95;;;15.10;92.20;;;;;;5093314;28;20027;-50
2022/05/27 02:31:09;;;;;;;8.95;1.75;;;15.10;92.30;;;;;;5093417;28;20424;-46
2022/05/27 02:36:36;;;;;;;8.27;1.77;;;15.00;92.70;;;;;;5093589;28;20042;-55
2022/05/27 02:39:05;;;;;;;5.88;1.63;;;15.00;92.50;;;;;;5093359;28;20024;-53
2022/05/27 02:41:41;;;;;;;4.97;1.75;;;15.00;92.30;;;;;;5093291;28;20059;-58
2022/05/27 02:44:25;;;;;;;5.45;1.83;;;15.00;92.80;;;;;;5074976;28;20036;-59
2022/05/27 02:46:57;;;;;;;4.97;1.90;;;15.00;93.30;;;;;;5093068;28;20016;-56
2022/05/27 02:49:34;;;;;;;5.50;1.75;;;15.00;93.20;;;;;;5092986;28;20024;-55
2022/05/27 02:52:06;;;;;;;4.68;1.63;;;15.00;93.50;;;;;;5092870;28;20526;-58
2022/05/27 02:54:55;;;;;;;7.78;2.05;;;15.00;93.90;;;;;;5093054;28;20107;-54
2022/05/27 02:57:27;;;;;;;6.55;2.13;;;15.00;93.10;;;;;;5092843;28;20047;-57
2022/05/27 02:59:54;;;;;;;5.70;1.70;;;15.00;92.90;;;;;;5092745;28;20499;-56
2022/05/27 03:02:20;;;;;;;4.53;1.77;;;15.00;92.70;;;;;;5092998;28;20039;-58
2022/05/27 03:04:53;;;;;;;7.35;1.80;;;15.00;93.00;;;;;;5092903;28;20033;-55
2022/05/27 03:07:37;;;;;;;5.53;1.90;;;15.00;92.70;;;;;;5092875;28;20060;-51
2022/05/27 03:10:15;;;;;;;4.38;2.05;;;15.00;92.90;;;;;;5092668;28;20032;-55
2022/05/27 03:13:12;;;;;;;6.05;2.42;;;14.90;92.90;;;;;;5092482;28;20457;-57
2022/05/27 03:16:00;;;;;;;9.23;2.00;;;14.90;93.20;;;;;;5047688;28;20040;-58
2022/05/27 03:18:37;;;;;;;7.15;2.17;;;14.90;93.30;;;;;;5092467;28;20141;-44
2022/05/27 03:21:26;;;;;;;6.20;1.90;;;14.90;93.40;;;;;;5092651;28;20062;-50
2022/05/27 03:24:16;;;;;;;5.55;1.77;;;14.90;93.50;;;;;;5091674;28;20027;-56
2022/05/27 03:27:03;;;;;;;6.53;2.28;;;14.90;93.80;;;;;;5092590;28;20082;-46
2022/05/27 03:29:45;;;;;;;9.45;2.10;;;14.90;93.70;;;;;;5092340;28;20059;-56
2022/05/27 03:32:22;;;;;;;7.15;2.10;;;14.80;93.90;;;;;;5092263;28;20388;-57
2022/05/27 03:34:55;;;;;;;7.03;2.10;;;14.80;94.20;;;;;;5092098;28;20028;-58
2022/05/27 03:37:34;;;;;;;6.78;1.92;;;14.80;94.30;;;;;;5092393;28;20046;-57
2022/05/27 03:40:14;;;;;;;5.07;1.73;;;14.80;94.40;;;;;;5092140;28;20488;-55
2022/05/27 03:42:41;;;;;;;5.07;2.00;;;14.70;94.60;;;;;;5092085;28;20477;-63
2022/05/27 03:45:09;;;;;;;9.63;2.63;;;14.70;94.80;;;;;;5091910;28;20073;-53
2022/05/27 03:47:36;;;;;;;4.67;1.90;;;14.70;94.80;;;;;;5091756;28;20077;-58
2022/05/27 03:50:03;;;;;;;3.38;1.77;;;14.70;95.10;;;;;;5091801;28;20087;-57
2022/05/27 03:52:35;;;;;;;5.43;1.83;;;14.70;94.90;;;;;;5092050;28;20020;-48
2022/05/27 03:55:01;;;;;;;6.30;1.75;;;14.70;95.20;;;;;;5091800;28;20099;-52
2022/05/27 03:57:26;;;;;;;6.65;2.00;;;14.70;95.30;;;;;;5091838;28;20551;-55
2022/05/27 03:59:52;;;;;;;4.30;1.88;;;14.60;95.20;;;;;;5091673;28;20503;-58
2022/05/27 04:02:18;;;;;;;6.57;2.10;;;14.70;95.20;;;;;;5091605;28;20067;-53
2022/05/27 04:04:43;;;;;;;6.25;2.20;;;14.70;95.20;;;;;;5073568;28;20063;-56
2022/05/27 04:07:09;;;;;;;5.03;1.90;;;14.70;94.90;;;;;;5091700;28;20020;-61
2022/05/27 04:09:36;;;;;;;4.60;2.33;;;14.70;94.80;;;;;;5091470;28;20376;-56
2022/05/27 04:12:03;;;;;;;6.22;1.55;;;14.60;94.70;;;;;;5091608;28;20087;-57
2022/05/27 04:14:29;;;;;;;5.45;1.92;;;14.50;94.80;;;;;;5091502;28;20089;-56
2022/05/27 04:17:27;;;;;;;9.50;2.03;;;14.50;94.90;;;;;;5091723;28;20035;-57
2022/05/27 04:19:41;;;;;;;6.47;1.83;;;14.40;95.00;;;;;;5091407;28;20042;-60
2022/05/27 04:22:06;;;;;;;4.70;1.80;;;14.40;95.10;;;;;;5091471;28;20024;-50
2022/05/27 04:24:33;;;;;;;5.10;1.73;;;14.30;95.00;;;;;;5091510;28;20436;-53
2022/05/27 04:26:59;;;;;;;5.70;1.90;;;14.40;95.10;;;;;;5091424;28;20472;-55
2022/05/27 04:29:25;;;;;;;3.70;1.77;;;14.30;95.00;;;;;;5091282;28;20035;-54
2022/05/27 04:31:50;;;;;;;8.35;1.95;;;14.30;94.90;;;;;;5091465;28;20032;-49
2022/05/27 04:34:16;;;;;;;7.68;1.98;;;14.30;94.90;;;;;;5091273;28;20220;-52
2022/05/27 04:36:41;;;;;;;3.53;1.80;;;14.30;94.80;;;;;;5091064;28;20054;-47
2022/05/27 04:39:07;;;;;;;3.47;1.60;;;14.30;95.00;;;;;;5091275;28;20305;-48
2022/05/27 04:41:33;;;;;;;2.95;1.50;;;14.30;94.70;;;;;;5091208;28;20032;-51
2022/05/27 04:43:58;;;;;;;6.13;1.60;;;14.30;94.70;;;;;;5091225;28;20034;-59
2022/05/27 04:46:24;;;;;;;3.38;1.80;;;14.30;95.10;;;;;;5091073;28;20364;-51
2022/05/27 04:48:50;;;;;;;3.83;2.00;;;14.40;95.30;;;;;;5072650;28;20062;-55
2022/05/27 04:51:15;;;;;;;5.60;1.67;;;14.40;95.20;;;;;;5090834;28;20529;-51
2022/05/27 04:53:41;;;;;;;3.63;1.70;;;14.40;95.10;;;;;;5091049;28;20028;-46
2022/05/27 04:56:10;;;;;;;3.22;1.60;;;14.40;95.00;;;;;;5090961;28;20089;-54
2022/05/27 04:58:36;;;;;;;4.25;1.77;;;14.40;94.80;;;;;;5091277;28;20016;-52
2022/05/27 05:01:02;;;;;;;4.22;1.92;;;14.50;94.50;;;;;;5090964;28;20515;-57
2022/05/27 05:03:28;;;;;;;4.50;1.80;;;14.40;94.50;;;;;;5090765;28;20385;-55
2022/05/27 05:05:53;;;;;;;8.05;2.28;;;14.50;94.60;;;;;;5090944;28;20050;-55
2022/05/27 05:08:33;;;;;;;5.47;1.90;;;14.50;94.50;;;;;;5090977;28;20116;-57
2022/05/27 05:11:01;;;;;;;3.78;1.80;;;14.50;94.50;;;;;;5091113;28;20028;-60
2022/05/27 05:13:28;;;;;;;5.37;2.07;;;14.50;94.50;;;;;;5091048;28;20028;-59
2022/05/27 05:15:54;;;;;;;8.63;1.90;;;14.60;94.30;;;;;;5095044;28;20024;-50
2022/05/27 05:18:19;;;;;;;4.03;1.83;;;14.60;94.40;;;;;;5092599;28;20030;-58
2022/05/27 05:20:45;;;;;;;5.43;1.70;;;14.60;94.30;;;;;;5090533;28;20073;-53
2022/05/27 05:23:10;;;;;;;7.55;2.10;;;14.70;94.30;;;;;;5097880;28;20507;-57
2022/05/27 05:25:36;;;;;;;7.25;1.95;;;14.70;94.40;;;;;;5093765;28;20031;-53
2022/05/27 05:28:02;;;;;;;7.15;2.15;;;14.80;94.30;;;;;;5090352;28;20017;-49
2022/05/27 05:30:28;;;;;;;5.22;1.65;;;14.90;94.20;;;;;;5090428;28;20028;-61
2022/05/27 05:32:54;;;;;;;3.72;2.00;;;14.90;93.80;;;;;;5092999;28;20031;-44
2022/05/27 05:35:20;;;;;;;6.35;1.95;;;14.90;93.80;;;;;;5090738;28;20508;-42
2022/05/27 05:37:46;;;;;;;2.90;1.55;;;14.90;93.80;;;;;;5090651;28;20024;-55
2022/05/27 05:40:13;;;;;;;3.63;1.52;;;15.00;94.10;;;;;;5090634;28;20502;-41
2022/05/27 05:42:39;;;;;;;6.57;2.30;;;15.20;94.20;;;;;;5109347;28;20537;-60
2022/05/27 05:45:07;;;;;;;4.22;1.90;;;15.40;93.40;;;;;;5111058;28;20055;-52
2022/05/27 05:47:33;;;;;;;4.80;1.73;;;15.80;93.00;;;;;;5112260;28;20110;-57
2022/05/27 05:49:58;;;;;;;3.55;1.52;;;16.10;91.60;;;;;;5114550;28;20115;-52
2022/05/27 05:52:24;;;;;;;4.25;1.50;;;16.80;91.50;;;;;;5114283;28;20083;-61
2022/05/27 05:54:49;;;;;;;3.40;1.58;;;17.50;89.10;;;;;;5114776;28;20129;-59
2022/05/27 05:57:15;;;;;;;3.47;1.48;;;18.40;87.70;;;;;;5109150;28;20465;-57
2022/05/27 05:59:41;;;;;;;2.35;1.08;;;19.10;82.40;;;;;;5094154;28;20387;-60
2022/05/27 06:02:08;;;;;;;5.35;1.38;;;19.70;78.60;;;;;;5094044;28;20024;-59
2022/05/27 06:04:34;;;;;;;3.53;1.10;;;20.20;76.40;;;;;;5094045;28;20097;-54
2022/05/27 06:07:00;;;;;;;3.80;1.30;;;20.60;74.30;;;;;;5093879;28;20030;-57
2022/05/27 06:09:26;;;;;;;3.75;1.10;;;21.10;73.80;;;;;;5095648;28;20024;-56
2022/05/27 06:11:54;;;;;;;3.80;1.30;;;21.60;69.30;;;;;;5094093;28;20020;-57
2022/05/27 06:14:19;;;;;;;2.47;1.00;;;21.40;67.40;;;;;;5091864;28;20024;-56
2022/05/27 06:16:45;;;;;;;3.97;1.10;;;21.60;68.20;;;;;;5093400;28;20506;-62
2022/05/27 06:19:11;;;;;;;2.35;1.20;;;21.50;66.70;;;;;;5093643;28;20069;-59
2022/05/27 06:21:36;;;;;;;1.77;1.02;;;21.40;67.10;;;;;;5094940;28;20024;-57
2022/05/27 06:24:03;;;;;;;2.50;1.00;;;21.70;68.30;;;;;;5093499;28;20032;-45
2022/05/27 06:26:29;;;;;;;4.60;1.10;;;22.00;65.10;;;;;;5092020;28;20028;-45
2022/05/27 06:34:26;;;;;;;3.45;1.10;;;21.20;65.20;;;;;;5091472;28;20127;-46
2022/05/27 06:37:09;;;;;;;2.80;1.10;;;21.10;69.00;;;;;;5091059;28;20054;-42
2022/05/27 06:39:36;;;;;;;3.28;1.30;;;20.80;70.10;;;;;;5091442;28;20043;-49
2022/05/27 06:42:04;;;;;;;4.40;1.30;;;20.80;67.10;;;;;;5092893;28;20069;-49
2022/05/27 06:44:30;;;;;;;2.08;1.13;;;21.30;69.70;;;;;;5093233;28;20099;-46
2022/05/27 06:46:56;;;;;;;3.08;1.20;;;22.00;68.70;;;;;;5093040;28;20056;-59
2022/05/27 06:49:22;;;;;;;2.67;1.00;;;22.40;63.00;;;;;;5092687;28;20024;-56
2022/05/27 06:51:48;;;;;;;2.47;1.17;;;22.30;62.30;;;;;;5092447;28;20093;-53
2022/05/27 06:54:15;;;;;;;4.30;1.50;;;22.30;67.30;;;;;;5095426;28;20024;-60
2022/05/27 06:56:43;;;;;;;2.33;1.30;;;22.30;62.90;;;;;;5092885;28;20034;-57
2022/05/27 06:59:10;;;;;;;3.17;1.30;;;21.80;61.50;;;;;;5093028;28;20027;-56
2022/05/27 07:01:36;;;;;;;3.53;1.75;;;22.30;63.40;;;;;;5093007;28;20032;-54
2022/05/27 07:04:03;;;;;;;2.92;1.23;;;22.50;58.50;;;;;;5092657;28;20028;-60
2022/05/27 07:06:37;;;;;;;2.53;1.25;;;21.90;59.20;;;;;;5092773;28;20146;-55
2022/05/27 07:09:05;;;;;;;6.22;1.70;;;21.30;61.80;;;;;;5092416;28;20126;-59
2022/05/27 07:11:31;;;;;;;4.57;1.65;;;21.40;61.40;;;;;;5092230;28;20182;-55
2022/05/27 07:13:57;;;;;;;4.97;1.65;;;21.80;65.30;;;;;;5092610;28;20099;-57
2022/05/27 07:16:23;;;;;;;3.13;1.50;;;22.20;58.70;;;;;;5092575;28;20019;-56
2022/05/27 07:18:48;;;;;;;5.88;1.48;;;22.50;62.00;;;;;;5092531;28;20031;-57
2022/05/27 07:21:14;;;;;;;4.38;1.73;;;22.90;58.80;;;;;;5092355;28;20373;-43
2022/05/27 07:23:39;;;;;;;5.18;1.50;;;23.40;55.50;;;;;;5092219;28;20027;-57
2022/05/27 07:26:06;;;;;;;8.07;1.75;;;23.80;59.00;;;;;;5091693;28;20075;-60
2022/05/27 07:28:31;;;;;;;3.28;1.52;;;24.70;55.80;;;;;;5092403;28;20481;-61
2022/05/27 07:31:01;;;;;;;5.28;1.63;;;25.00;53.60;;;;;;5091896;28;20070;-55
2022/05/27 07:33:27;;;;;;;4.88;1.42;;;25.00;50.20;;;;;;5092132;28;20357;-55
2022/05/27 07:35:53;;;;;;;4.72;1.30;;;25.40;48.20;;;;;;5091972;28;20028;-53
2022/05/27 07:38:18;;;;;;;3.58;1.35;;;25.70;48.70;;;;;;5091940;28;20066;-53
2022/05/27 07:40:44;;;;;;;4.10;1.25;;;26.10;47.90;;;;;;5092005;28;20503;-57
2022/05/27 07:43:11;;;;;;;4.20;1.60;;;26.20;47.50;;;;;;5091944;28;20537;-56
2022/05/27 07:45:39;;;;;;;4.78;1.60;;;26.00;48.60;;;;;;5092044;28;20031;-57
2022/05/27 07:48:05;;;;;;;5.00;1.30;;;25.60;48.80;;;;;;5091908;28;20111;-60
2022/05/27 07:50:31;;;;;;;5.50;1.63;;;25.90;48.10;;;;;;5091634;28;20067;-55
2022/05/27 07:52:57;;;;;;;3.13;1.25;;;26.80;49.70;;;;;;5091944;28;20028;-61
2022/05/27 07:55:22;;;;;;;7.32;1.75;;;26.70;49.50;;;;;;5096429;28;20027;-51
2022/05/27 07:57:48;;;;;;;3.00;1.35;;;25.80;47.70;;;;;;5111674;28;20503;-59
2022/05/27 08:00:16;;;;;;;5.72;1.63;;;24.90;48.00;;;;;;5111860;28;20393;-61
2022/05/27 08:02:41;;;;;;;4.90;1.90;;;23.40;52.30;;;;;;5098690;28;20024;-60
2022/05/27 08:05:14;;;;;;;6.05;1.73;;;22.00;52.10;;;;;;5092760;28;20074;-54
2022/05/27 08:07:39;;;;;;;4.07;1.30;;;22.00;58.60;;;;;;5107253;28;20024;-47
2022/05/27 08:10:06;;;;;;;5.60;1.65;;;22.60;56.20;;;;;;5111347;28;20069;-60
2022/05/27 08:12:32;;;;;;;6.57;1.88;;;24.00;59.50;;;;;;5111491;28;20023;-55
2022/05/27 08:14:58;;;;;;;4.28;1.70;;;25.30;51.60;;;;;;5109680;28;20028;-60
2022/05/27 08:17:24;;;;;;;7.18;1.52;;;25.90;47.80;;;;;;5091499;28;20146;-44
2022/05/27 08:19:50;;;;;;;6.00;1.75;;;26.30;51.00;;;;;;5091515;28;20400;-59
2022/05/27 08:22:15;;;;;;;8.50;2.00;;;25.40;46.50;;;;;;5091017;28;20024;-57
2022/05/27 08:24:44;;;;;;;5.97;1.63;;;25.20;54.10;;;;;;5091460;28;20431;-62
2022/05/27 08:27:10;;;;;;;4.00;1.70;;;26.20;51.50;;;;;;5091483;28;20034;-43
2022/05/27 08:29:35;;;;;;;7.60;1.92;;;25.30;46.50;;;;;;5091511;28;20024;-44
2022/05/27 08:32:03;;;;;;;6.82;1.55;;;25.00;48.90;;;;;;5091301;28;20032;-42
2022/05/27 08:40:15;;;;;;;6.72;1.83;;;24.50;48.50;;;;;;5091559;28;20034;-42
2022/05/27 08:43:00;;;;;;;7.70;1.83;;;24.50;50.80;;;;;;5091295;28;20042;-42
2022/05/27 08:45:32;;;;;;;8.15;2.03;;;25.10;53.90;;;;;;5079474;28;20585;-43
2022/05/27 08:48:01;;;;;;;6.88;1.98;;;25.90;50.60;;;;;;5093363;28;20430;-42
2022/05/27 08:50:48;;;;;;;4.25;1.70;;;25.50;49.30;;;;;;5098021;28;20070;-43
2022/05/27 08:53:20;;;;;;;5.65;1.83;;;26.10;44.30;;;;;;5090273;28;20028;-56
2022/05/27 09:01:39;;;;;;;4.55;1.90;;;25.30;47.10;;;;;;5091539;28;21052;-58
2022/05/27 09:04:17;;;;;;;6.78;1.90;;;26.00;47.70;;;;;;5090869;28;20337;-56
2022/05/27 09:06:59;;;;;;;6.68;2.13;;;26.80;49.20;;;;;;5091218;28;20055;-51
2022/05/27 09:09:29;;;;;;;7.45;1.77;;;26.70;42.50;;;;;;5119891;28;20038;-65
2022/05/27 09:12:06;;;;;;;5.18;1.88;;;26.80;42.80;;;;;;5120519;28;20526;-61
2022/05/27 09:14:36;;;;;;;6.97;1.98;;;26.40;46.00;;;;;;5090239;28;20051;-55
2022/05/27 09:17:07;;;;;;;6.43;2.10;;;26.00;49.30;;;;;;5090467;28;20028;-57
2022/05/27 09:19:53;;;;;;;7.38;1.85;;;27.20;48.30;;;;;;5090942;28;20043;-56
2022/05/27 09:22:40;;;;;;;6.47;1.92;;;27.50;44.50;;;;;;5095719;27;20020;-54
2022/05/27 09:25:23;;;;;;;6.55;1.85;;;26.40;41.00;;;;;;5094497;28;20130;-55
2022/05/27 09:28:16;;;;;;;7.90;1.90;;;25.60;42.80;;;;;;5094224;28;20468;-57
2022/05/27 09:30:42;;;;;;;6.53;1.88;;;25.50;46.60;;;;;;5096797;28;20528;-59
2022/05/27 09:33:15;;;;;;;6.43;1.95;;;26.30;47.80;;;;;;5096986;27;20050;-52
2022/05/27 09:35:45;;;;;;;7.22;2.05;;;26.90;45.40;;;;;;5094150;28;20065;-59
2022/05/27 09:38:20;;;;;;;5.72;1.88;;;27.50;40.90;;;;;;5098516;27;20028;-58
2022/05/27 09:40:56;;;;;;;8.23;1.90;;;27.40;38.80;;;;;;5093919;28;20077;-52
2022/05/27 09:43:39;;;;;;;7.13;1.70;;;27.50;39.00;;;;;;5093904;28;20020;-54
2022/05/27 09:46:09;;;;;;;6.45;2.10;;;27.70;41.30;;;;;;5094377;28;20020;-62
2022/05/27 09:48:35;;;;;;;8.63;2.10;;;28.10;39.80;;;;;;5094027;28;20039;-54
2022/05/27 09:51:04;;;;;;;9.40;2.25;;;28.30;38.70;;;;;;5093618;28;20097;-47
2022/05/27 09:53:36;;;;;;;7.20;2.20;;;28.60;41.50;;;;;;5094067;28;20029;-55
2022/05/27 09:56:12;;;;;;;8.38;2.38;;;28.60;39.70;;;;;;5093989;28;20111;-56
2022/05/27 09:58:46;;;;;;;7.05;2.10;;;28.90;40.30;;;;;;5094105;28;20414;-55
2022/05/27 10:01:22;;;;;;;8.70;2.35;;;28.20;36.90;;;;;;5096359;28;20030;-60
2022/05/27 10:04:06;;;;;;;7.85;2.10;;;28.10;44.40;;;;;;5093488;28;20058;-52
2022/05/27 10:06:34;;;;;;;6.70;1.98;;;28.10;43.90;;;;;;5093511;28;20024;-55
2022/05/27 10:09:07;;;;;;;8.45;2.15;;;27.80;41.30;;;;;;5075212;28;20357;-53
2022/05/27 10:11:48;;;;;;;7.05;1.73;;;28.60;39.90;;;;;;5097908;28;20040;-49
2022/05/27 10:14:32;;;;;;;8.45;2.08;;;29.20;38.70;;;;;;5112321;28;20035;-61
2022/05/27 10:17:10;;;;;;;7.18;2.20;;;28.00;37.00;;;;;;5094365;28;20024;-59
2022/05/27 10:19:41;;;;;;;6.45;2.20;;;27.90;39.60;;;;;;5093309;28;20024;-60
2022/05/27 10:22:28;;;;;;;9.35;2.30;;;28.40;38.40;;;;;;5093591;28;20071;-58
2022/05/27 10:25:02;;;;;;;6.13;1.77;;;28.10;38.10;;;;;;5092971;28;20512;-53
2022/05/27 10:27:39;;;;;;;9.23;2.10;;;28.30;42.00;;;;;;5092827;28;20412;-55
2022/05/27 10:30:18;;;;;;;12.60;2.10;;;28.50;39.20;;;;;;5092870;28;20032;-57
2022/05/27 10:32:45;;;;;;;11.55;2.30;;;28.20;47.80;;;;;;5093119;28;20077;-55
2022/05/27 10:35:25;;;;;;;5.90;2.08;;;27.80;40.50;;;;;;5093180;28;20412;-59
2022/05/27 10:38:13;;;;;;;10.13;2.40;;;27.90;35.80;;;;;;5093388;28;20119;-54
2022/05/27 10:41:00;;;;;;;7.75;2.10;;;27.20;37.50;;;;;;5093442;28;20027;-58
2022/05/27 10:43:56;;;;;;;6.35;1.92;;;26.80;42.30;;;;;;5093218;28;20032;-48
2022/05/27 10:46:30;;;;;;;6.95;2.10;;;26.40;45.80;;;;;;5093405;28;20039;-59
2022/05/27 10:49:23;;;;;;;8.90;2.13;;;26.40;40.00;;;;;;5093174;28;20026;-62
2022/05/27 10:52:03;;;;;;;9.50;2.50;;;26.10;38.60;;;;;;5092949;28;20044;-54
2022/05/27 10:54:35;;;;;;;9.18;2.22;;;26.50;42.70;;;;;;5092868;28;20050;-53
2022/05/27 11:03:14;;;;;;;9.10;2.40;;;26.70;38.90;;;;;;5093128;28;20503;-56
2022/05/27 11:06:04;;;;;;;9.57;2.25;;;27.40;48.80;;;;;;5092741;28;20032;-58
2022/05/27 11:08:33;;;;;;;8.57;2.30;;;27.70;44.90;;;;;;5092746;28;20080;-51
2022/05/27 11:11:26;;;;;;;8.45;2.13;;;27.90;45.30;;;;;;5092630;28;20031;-57
2022/05/27 11:17:03;;;;;;;7.53;2.30;;;27.40;39.70;;;;;;5092625;28;20089;-54
2022/05/27 11:19:50;;;;;;;23.75;2.95;;;27.60;44.30;;;;;;5092513;28;20032;-56
2022/05/27 11:22:37;;;;;;;7.85;2.63;;;28.10;37.60;;;;;;5092489;28;20016;-54
2022/05/27 11:25:19;;;;;;;14.40;2.50;;;27.00;36.20;;;;;;5092557;28;20020;-58
2022/05/27 11:28:19;;;;;;;8.70;2.60;;;26.70;39.30;;;;;;5074058;28;20503;-49
2022/05/27 11:31:13;;;;;;;9.65;2.58;;;27.00;38.20;;;;;;5092121;28;20530;-55
2022/05/27 11:33:43;;;;;;;10.13;2.25;;;27.50;41.60;;;;;;5092021;28;20473;-57
2022/05/27 11:36:34;;;;;;;9.02;2.15;;;26.90;38.10;;;;;;5092066;28;20510;-56
2022/05/27 11:39:33;;;;;;;8.40;2.53;;;26.70;44.80;;;;;;5106790;27;20528;-49
2022/05/27 11:42:14;;;;;;;11.18;2.72;;;26.00;41.70;;;;;;5097502;27;20060;-58
2022/05/27 11:45:08;;;;;;;7.35;2.30;;;25.90;38.50;;;;;;5091720;28;20032;-52
2022/05/27 11:47:52;;;;;;;6.63;2.22;;;25.80;45.80;;;;;;5091597;28;20024;-58
2022/05/27 11:50:49;;;;;;;9.43;2.03;;;25.80;40.70;;;;;;5091658;28;20123;-57
2022/05/27 11:53:27;;;;;;;7.07;2.40;;;26.30;46.30;;;;;;5092062;28;20289;-62
2022/05/27 11:56:13;;;;;;;7.90;2.60;;;26.40;41.00;;;;;;5092287;28;20058;-48
2022/05/27 11:58:39;;;;;;;11.32;2.47;;;25.60;42.90;;;;;;5091792;28;20028;-60
2022/05/27 12:01:29;;;;;;;7.57;2.28;;;25.40;40.10;;;;;;5091744;28;20076;-59
2022/05/27 12:04:07;;;;;;;8.18;2.20;;;25.40;40.90;;;;;;5091928;28;20418;-57
2022/05/27 12:06:43;;;;;;;9.98;2.85;;;25.40;39.70;;;;;;5090868;28;20383;-48
2022/05/27 12:09:41;;;;;;;10.95;2.50;;;25.40;38.90;;;;;;5091173;28;20024;-58
2022/05/27 12:12:11;;;;;;;8.02;2.33;;;25.60;38.90;;;;;;5109832;28;20036;-53
2022/05/27 12:14:44;;;;;;;12.35;2.72;;;25.80;42.60;;;;;;5091395;28;20028;-56
2022/05/27 12:17:16;;;;;;;10.80;2.38;;;25.70;44.10;;;;;;5091491;28;20051;-56
2022/05/27 12:19:48;;;;;;;16.08;2.88;;;26.00;43.60;;;;;;5091292;28;20030;-52
2022/05/27 12:22:22;;;;;;;8.52;2.28;;;26.00;38.80;;;;;;5091135;28;20576;-52
2022/05/27 12:24:56;;;;;;;7.35;2.50;;;26.20;41.70;;;;;;5091509;28;20077;-55
2022/05/27 12:27:23;;;;;;;10.77;2.60;;;25.90;41.00;;;;;;5098062;28;20047;-49
2022/05/27 12:29:50;;;;;;;9.43;2.22;;;25.70;42.40;;;;;;5111468;28;20024;-49
2022/05/27 12:32:18;;;;;;;9.43;2.60;;;25.90;43.90;;;;;;5091176;28;20571;-57
2022/05/27 12:34:48;;;;;;;8.40;2.40;;;26.00;41.20;;;;;;5091024;28;20025;-56
2022/05/27 12:37:18;;;;;;;8.90;2.30;;;26.00;42.40;;;;;;5101309;28;20031;-59
2022/05/27 12:39:47;;;;;;;10.02;3.30;;;25.80;43.80;;;;;;5111572;28;20020;-61
2022/05/27 12:42:25;;;;;;;5.65;2.10;;;25.70;41.20;;;;;;5111467;28;20027;-59
2022/05/27 12:44:51;;;;;;;13.73;2.78;;;25.60;43.70;;;;;;5090486;28;20039;-60
2022/05/27 12:47:33;;;;;;;9.25;2.70;;;25.50;41.50;;;;;;5090984;28;20484;-57
2022/05/27 12:50:03;;;;;;;9.82;3.00;;;25.20;45.20;;;;;;5093516;28;20036;-59
2022/05/27 12:52:29;;;;;;;35.47;6.70;;;25.10;46.70;;;;;;5131698;28;20051;-55
2022/05/27 12:55:06;;;;;;;10.18;2.75;;;25.00;44.50;;;;;;5127530;28;20031;-51
2022/05/27 13:03:36;;;;;;;12.77;2.92;;;25.00;42.00;;;;;;5113022;28;20062;-48
2022/05/27 13:06:17;;;;;;;11.60;2.53;;;25.10;42.00;;;;;;5114399;28;20027;-57
2022/05/27 13:08:51;;;;;;;10.55;2.35;;;25.10;44.30;;;;;;5114595;28;20024;-58
2022/05/27 13:11:23;;;;;;;9.38;2.20;;;24.90;41.60;;;;;;5114540;28;20106;-59
2022/05/27 13:14:06;;;;;;;11.93;2.50;;;24.50;41.60;;;;;;5114533;28;20095;-55
2022/05/27 13:16:59;;;;;;;12.52;2.95;;;24.60;44.30;;;;;;5111073;28;20062;-61
2022/05/27 13:19:45;;;;;;;9.60;2.47;;;24.50;41.80;;;;;;5094446;28;20028;-55
2022/05/27 13:22:29;;;;;;;15.77;3.10;;;24.60;42.50;;;;;;5114662;28;20104;-57
2022/05/27 13:25:14;;;;;;;9.13;2.22;;;24.30;43.10;;;;;;5115140;28;20176;-55
2022/05/27 13:27:41;;;;;;;8.60;2.65;;;24.40;40.70;;;;;;5115103;28;20066;-49
2022/05/27 13:30:13;;;;;;;5.90;1.98;;;24.20;40.90;;;;;;5115024;28;20023;-58
2022/05/27 13:32:56;;;;;;;9.88;2.60;;;24.20;40.00;;;;;;5121252;27;20083;-49
2022/05/27 13:35:22;;;;;;;9.65;2.58;;;24.10;44.70;;;;;;5117490;27;20129;-60
2022/05/27 13:37:56;;;;;;;10.57;2.70;;;24.00;41.80;;;;;;5114800;28;20487;-56
2022/05/27 13:40:30;;;;;;;9.25;2.47;;;23.90;43.30;;;;;;5114883;28;20055;-57
2022/05/27 13:43:01;;;;;;;9.00;2.83;;;24.00;43.60;;;;;;5104645;28;20023;-54
2022/05/27 13:45:32;;;;;;;11.10;2.30;;;24.00;40.90;;;;;;5097555;27;20016;-59
2022/05/27 13:48:32;;;;;;;8.18;2.30;;;24.00;41.40;;;;;;5094015;28;20093;-58
2022/05/27 13:51:12;;;;;;;11.73;2.75;;;24.10;43.50;;;;;;5085560;28;20503;-51
2022/05/27 13:53:39;;;;;;;9.32;2.30;;;24.10;40.60;;;;;;5103308;28;20103;-60